createdAt,value
2022-09-11T00:00:07.693Z,14.8
2022-09-11T00:05:08.389Z,14.8
2022-09-11T00:10:08.042Z,14.6
2022-09-11T00:15:07.738Z,14.6
2022-09-11T00:20:08.463Z,14.6
2022-09-11T00:25:08.171Z,14.6
2022-09-11T00:30:07.871Z,14.5
2022-09-11T00:35:08.707Z,14.5
2022-09-11T00:40:08.470Z,14.5
2022-09-11T00:45:18.208Z,14.5
2022-09-11T00:50:07.913Z,14.3
2022-09-11T00:55:08.621Z,14.3
2022-09-11T01:00:08.284Z,14.3
2022-09-11T01:05:07.950Z,14.3
2022-09-11T01:10:07.661Z,14.3
2022-09-11T01:15:08.367Z,14.3
2022-09-11T01:20:08.078Z,14.5
2022-09-11T01:25:07.781Z,14.5
2022-09-11T01:30:11.730Z,14.6
2022-09-11T01:35:07.718Z,14.6
2022-09-11T01:40:08.450Z,14.5
2022-09-11T01:45:08.205Z,14.5
2022-09-11T01:50:07.898Z,14.3
2022-09-11T01:55:08.619Z,14.3
2022-09-11T02:00:08.328Z,14.1
2022-09-11T02:05:14.581Z,14.1
2022-09-11T02:10:08.266Z,14.0
2022-09-11T02:15:07.938Z,14.0
2022-09-11T02:20:08.663Z,14.0
2022-09-11T02:25:08.352Z,14.0
2022-09-11T02:30:08.040Z,13.8
2022-09-11T02:35:07.771Z,13.8
2022-09-11T02:40:08.527Z,14.0
2022-09-11T02:45:08.261Z,14.0
2022-09-11T02:50:12.898Z,14.3
2022-09-11T02:55:10.806Z,14.3
2022-09-11T03:00:09.188Z,14.3
2022-09-11T03:05:07.900Z,14.3
2022-09-11T03:10:08.619Z,14.3
2022-09-11T03:15:08.326Z,14.3
2022-09-11T03:20:08.056Z,14.5
2022-09-11T03:25:07.755Z,14.5
2022-09-11T03:30:08.461Z,14.5
2022-09-11T03:35:08.185Z,14.5
2022-09-11T03:40:08.014Z,14.5
2022-09-11T03:45:07.772Z,14.5
2022-09-11T03:50:08.462Z,14.5
2022-09-11T03:55:08.161Z,14.5
2022-09-11T04:00:07.838Z,14.5
2022-09-11T04:05:02.745Z,14.5
2022-09-11T04:10:03.107Z,14.5
2022-09-11T04:15:02.580Z,14.5
2022-09-11T04:20:03.072Z,14.5
2022-09-11T04:25:02.621Z,14.5
2022-09-11T04:30:02.936Z,14.3
2022-09-11T04:35:03.389Z,14.3
2022-09-11T04:40:02.806Z,14.3
2022-09-11T04:45:02.791Z,14.3
2022-09-11T04:50:03.671Z,14.3
2022-09-11T04:55:04.591Z,14.3
2022-09-11T05:00:02.845Z,14.1
2022-09-11T05:05:02.806Z,14.1
2022-09-11T05:10:05.322Z,14.1
2022-09-11T05:15:02.461Z,14.3
2022-09-11T05:20:06.631Z,14.1
2022-09-11T05:25:03.161Z,14.1
2022-09-11T05:30:03.796Z,14.1
2022-09-11T05:35:03.497Z,14.1
2022-09-11T05:40:04.613Z,14.1
2022-09-11T05:45:03.010Z,14.3
2022-09-11T05:50:04.491Z,14.3
2022-09-11T05:55:02.674Z,14.1
2022-09-11T06:00:05.028Z,14.1
2022-09-11T06:05:03.831Z,14.3
2022-09-11T06:10:03.586Z,14.3
2022-09-11T06:15:02.793Z,14.3
2022-09-11T06:20:04.033Z,14.3
2022-09-11T06:25:03.885Z,14.5
2022-09-11T06:30:04.417Z,14.6
2022-09-11T06:35:02.843Z,14.6
2022-09-11T06:40:03.217Z,14.6
2022-09-11T06:45:02.210Z,14.6
2022-09-11T06:50:03.133Z,14.8
2022-09-11T06:55:02.959Z,14.8
2022-09-11T07:00:02.912Z,14.8
2022-09-11T07:05:03.543Z,14.8
2022-09-11T07:10:02.852Z,15.3
2022-09-11T07:15:03.496Z,15.3
2022-09-11T07:20:04.462Z,15.8
2022-09-11T07:25:07.017Z,15.8
2022-09-11T07:30:05.734Z,16.2
2022-09-11T07:35:03.170Z,16.2
2022-09-11T07:40:02.600Z,16.3
2022-09-11T07:45:02.981Z,16.3
2022-09-11T07:50:05.791Z,16.7
2022-09-11T07:55:03.364Z,16.7
2022-09-11T08:00:04.248Z,16.3
2022-09-11T08:05:02.468Z,16.3
2022-09-11T08:10:26.045Z,17.0
2022-09-11T08:15:03.011Z,17.0
2022-09-11T08:20:03.070Z,16.2
2022-09-11T08:25:02.186Z,16.2
2022-09-11T08:30:02.729Z,17.5
2022-09-11T08:35:03.509Z,17.5
2022-09-11T08:40:02.953Z,17.1
2022-09-11T08:45:02.133Z,17.1
2022-09-11T08:50:01.967Z,17.3
2022-09-11T08:55:02.075Z,17.3
2022-09-11T09:00:02.292Z,18.1
2022-09-11T09:05:05.259Z,18.1
2022-09-11T09:10:03.207Z,17.3
2022-09-11T09:15:02.777Z,17.3
2022-09-11T09:20:02.911Z,17.3
2022-09-11T09:25:03.455Z,17.3
2022-09-11T09:30:02.959Z,18.8
2022-09-11T09:35:02.473Z,18.8
2022-09-11T09:40:02.875Z,17.7
2022-09-11T09:45:03.148Z,17.7
2022-09-11T09:50:02.442Z,17.3
2022-09-11T09:55:03.431Z,17.3
2022-09-11T10:00:03.466Z,17.5
2022-09-11T10:05:02.967Z,17.5
2022-09-11T10:10:02.063Z,18.6
2022-09-11T10:15:02.265Z,18.6
2022-09-11T10:20:12.653Z,18.2
2022-09-11T10:25:02.861Z,18.2
2022-09-11T10:30:02.958Z,19.2
2022-09-11T10:35:02.866Z,19.2
2022-09-11T10:40:04.016Z,18.2
2022-09-11T10:45:02.241Z,18.2
2022-09-11T10:50:03.413Z,18.7
2022-09-11T10:55:03.391Z,18.7
2022-09-11T11:00:14.677Z,18.6
2022-09-11T11:05:04.859Z,18.6
2022-09-11T11:10:03.102Z,19.1
2022-09-11T11:15:03.630Z,19.1
2022-09-11T11:20:02.721Z,20.0
2022-09-11T11:25:02.883Z,20.0
2022-09-11T11:30:08.201Z,20.2
2022-09-11T11:35:02.552Z,20.2
2022-09-11T11:40:02.936Z,21.6
2022-09-11T11:45:03.763Z,21.6
2022-09-11T11:50:03.901Z,21.7
2022-09-11T11:55:05.106Z,21.7
2022-09-11T12:00:03.228Z,22.7
2022-09-11T12:05:03.326Z,22.7
2022-09-11T12:10:03.030Z,21.0
2022-09-11T12:15:02.650Z,21.0
2022-09-11T12:20:02.752Z,22.3
2022-09-11T12:25:03.119Z,22.3
2022-09-11T12:30:04.196Z,22.0
2022-09-11T12:35:02.384Z,22.0
2022-09-11T12:40:02.881Z,22.3
2022-09-11T12:45:03.659Z,22.3
2022-09-11T12:50:04.631Z,23.1
2022-09-11T12:55:13.485Z,23.1
2022-09-11T13:00:03.143Z,24.0
2022-09-11T13:05:02.292Z,24.0
2022-09-11T13:10:03.712Z,25.1
2022-09-11T13:15:04.249Z,25.1
2022-09-11T13:20:03.947Z,24.2
2022-09-11T13:25:01.977Z,24.2
2022-09-11T13:30:02.888Z,23.8
2022-09-11T13:35:03.175Z,23.8
2022-09-11T13:40:02.561Z,24.2
2022-09-11T13:45:06.347Z,24.2
2022-09-11T13:50:04.214Z,23.6
2022-09-11T13:55:02.375Z,23.6
2022-09-11T14:00:03.063Z,23.7
2022-09-11T14:05:02.273Z,23.7
2022-09-11T14:10:03.290Z,24.2
2022-09-11T14:15:03.010Z,24.2
2022-09-11T14:20:03.053Z,24.3
2022-09-11T14:25:02.304Z,26.5
2022-09-11T14:30:02.449Z,25.5
2022-09-11T14:35:02.918Z,25.5
2022-09-11T14:40:04.910Z,25.7
2022-09-11T14:45:02.255Z,25.7
2022-09-11T14:50:03.725Z,24.2
2022-09-11T14:55:03.472Z,24.2
2022-09-11T15:00:03.324Z,24.5
2022-09-11T15:05:02.228Z,24.5
2022-09-11T15:10:04.340Z,25.5
2022-09-11T15:15:02.686Z,25.5
2022-09-11T15:20:03.561Z,23.6
2022-09-11T15:25:02.990Z,23.6
2022-09-11T15:30:02.590Z,23.2
2022-09-11T15:35:03.327Z,23.2
2022-09-11T15:40:02.886Z,23.7
2022-09-11T15:45:03.612Z,25.1
2022-09-11T15:50:09.001Z,25.1
2022-09-11T15:55:02.594Z,24.0
2022-09-11T16:00:02.827Z,24.0
2022-09-11T16:05:03.821Z,23.0
2022-09-11T16:10:02.905Z,23.0
2022-09-11T16:15:03.931Z,23.7
2022-09-11T16:20:02.966Z,24.2
2022-09-11T16:25:02.858Z,24.2
2022-09-11T16:35:04.071Z,23.0
2022-09-11T16:40:03.220Z,23.2
2022-09-11T16:45:04.100Z,23.2
2022-09-11T16:50:07.026Z,22.2
2022-09-11T16:55:03.410Z,22.2
2022-09-11T17:00:03.864Z,21.5
2022-09-11T17:05:03.134Z,21.5
2022-09-11T17:10:02.113Z,21.0
2022-09-11T17:15:02.240Z,21.0
2022-09-11T17:20:02.212Z,20.3
2022-09-11T17:25:07.548Z,20.3
2022-09-11T17:30:12.196Z,20.1
2022-09-11T17:35:10.132Z,20.1
2022-09-11T17:40:02.860Z,19.1
2022-09-11T17:45:03.129Z,19.1
2022-09-11T17:50:02.795Z,18.7
2022-09-11T17:55:03.816Z,18.7
2022-09-11T18:00:04.121Z,18.5
2022-09-11T18:05:02.700Z,18.5
2022-09-11T18:10:05.588Z,17.8
2022-09-11T18:15:04.269Z,17.7
2022-09-11T18:20:04.262Z,17.5
2022-09-11T18:25:03.073Z,17.5
2022-09-11T18:30:02.283Z,17.2
2022-09-11T18:35:02.567Z,17.2
2022-09-11T18:40:03.375Z,16.7
2022-09-11T18:45:09.156Z,16.7
2022-09-11T18:50:08.002Z,16.7
2022-09-11T18:55:02.761Z,16.7
2022-09-11T19:00:03.147Z,16.3
2022-09-11T19:05:03.348Z,16.3
2022-09-11T19:10:03.561Z,16.2
2022-09-11T19:15:03.050Z,16.2
2022-09-11T19:20:02.746Z,16.0
2022-09-11T19:25:03.065Z,16.0
2022-09-11T19:30:02.929Z,16.0
2022-09-11T19:35:03.554Z,16.0
2022-09-11T19:40:03.980Z,15.8
2022-09-11T19:45:03.210Z,15.8
2022-09-11T19:50:04.095Z,15.6
2022-09-11T19:55:04.158Z,15.6
2022-09-11T20:00:02.545Z,15.5
2022-09-11T20:05:03.899Z,15.5
2022-09-11T20:10:03.503Z,15.3
2022-09-11T20:15:02.865Z,15.3
2022-09-11T20:20:03.128Z,15.1
2022-09-11T20:25:02.233Z,15.1
2022-09-11T20:30:02.384Z,15.0
2022-09-11T20:35:04.427Z,15.0
2022-09-11T20:40:03.441Z,15.0
2022-09-11T20:45:02.816Z,15.0
2022-09-11T20:50:02.973Z,14.8
2022-09-11T20:55:02.444Z,14.8
2022-09-11T21:00:02.795Z,14.6
2022-09-11T21:05:05.633Z,14.6
2022-09-11T21:10:04.098Z,14.5
2022-09-11T21:15:02.296Z,14.5
2022-09-11T21:20:02.240Z,14.3
2022-09-11T21:25:02.125Z,14.3
2022-09-11T21:30:02.228Z,14.3
2022-09-11T21:35:14.868Z,14.3
2022-09-11T21:40:08.640Z,14.3
2022-09-11T21:45:08.400Z,14.3
2022-09-11T21:50:08.097Z,14.1
2022-09-11T21:55:07.775Z,14.1
2022-09-11T22:00:08.539Z,14.1
2022-09-11T22:05:08.205Z,14.1
2022-09-11T22:10:07.946Z,14.0
2022-09-11T22:15:07.677Z,14.0
2022-09-11T22:20:08.396Z,13.8
2022-09-11T22:25:08.109Z,13.8
2022-09-11T22:30:07.841Z,13.8
2022-09-11T22:35:08.510Z,13.8
2022-09-11T22:40:08.283Z,13.6
2022-09-11T22:45:08.000Z,13.6
2022-09-11T22:50:07.719Z,13.6
2022-09-11T22:55:08.426Z,13.6
2022-09-11T23:01:00.560Z,13.6
2022-09-11T23:05:08.253Z,13.6
2022-09-11T23:10:08.088Z,13.6
2022-09-11T23:15:07.808Z,13.6
2022-09-11T23:20:08.537Z,13.6
2022-09-11T23:25:08.235Z,13.6
2022-09-11T23:30:07.962Z,13.6
2022-09-11T23:35:07.672Z,13.6
2022-09-11T23:40:08.435Z,13.5
2022-09-11T23:45:08.167Z,13.5
2022-09-11T23:50:07.882Z,13.6
2022-09-11T23:55:08.616Z,13.6
